Time;durP1;ratioP1;P1;durP2;ratioP2;P2;SDS_P1;SDS_P2;PMS_P1;PMS_P2;Temp;Humidity;BMP_temperature;BMP_pressure;BME280_temperature;BME280_humidity;BME280_pressure;Samples;Min_cycle;Max_cycle;Signal;HPM_P1;HPM_P2
2023/12/23 00:00:18;;;;;;;6.13;5.05;;;;;;;5.37;100.00;96610.25;5088382;28;20097;-67
2023/12/23 00:02:43;;;;;;;4.13;2.65;;;;;;;5.39;100.00;96608.41;5089267;28;20027;-67
2023/12/23 00:05:08;;;;;;;4.60;4.20;;;;;;;5.41;100.00;96617.00;5091189;28;20032;-67
2023/12/23 00:07:35;;;;;;;5.00;4.40;;;;;;;5.38;100.00;96616.34;5086073;28;20032;-67
2023/12/23 00:10:04;;;;;;;5.72;5.22;;;;;;;5.35;100.00;96599.06;5088594;28;20036;-67
2023/12/23 00:12:29;;;;;;;12.82;9.80;;;;;;;5.41;100.00;96601.31;5091513;28;20028;-67
2023/12/23 00:14:55;;;;;;;14.13;11.77;;;;;;;5.43;100.00;96598.63;5084917;28;20035;-67
2023/12/23 00:17:20;;;;;;;20.75;15.90;;;;;;;5.44;100.00;96601.16;5089297;28;20425;-67
2023/12/23 00:19:46;;;;;;;29.58;26.15;;;;;;;5.49;100.00;96605.28;5086890;28;20123;-67
2023/12/23 00:22:11;;;;;;;14.00;8.35;;;;;;;5.47;100.00;96607.97;5083304;28;20448;-67
2023/12/23 00:24:37;;;;;;;2.88;2.67;;;;;;;5.45;100.00;96605.47;5088958;28;20029;-68
2023/12/23 00:27:02;;;;;;;13.90;12.57;;;;;;;5.49;100.00;96619.16;5085714;28;20073;-67
2023/12/23 00:29:28;;;;;;;8.80;7.97;;;;;;;5.52;100.00;96621.59;5090713;28;20476;-67
2023/12/23 00:31:53;;;;;;;6.07;4.53;;;;;;;5.54;100.00;96624.13;5088112;28;20040;-67
2023/12/23 00:34:19;;;;;;;4.75;3.97;;;;;;;5.58;100.00;96628.25;5085902;28;20480;-68
2023/12/23 00:36:44;;;;;;;7.88;6.10;;;;;;;5.54;100.00;96625.00;5087499;28;20073;-67
2023/12/23 00:39:10;;;;;;;17.95;9.77;;;;;;;5.49;100.00;96619.16;5088533;28;20044;-68
2023/12/23 00:41:37;;;;;;;14.45;10.00;;;;;;;5.48;100.00;96624.50;5091242;28;20028;-67
2023/12/23 00:44:02;;;;;;;14.95;11.32;;;;;;;5.51;100.00;96630.38;5087983;28;20044;-67
2023/12/23 00:46:30;;;;;;;10.35;9.23;;;;;;;5.50;100.00;96626.06;5088275;28;20443;-68
2023/12/23 00:48:56;;;;;;;9.38;8.38;;;;;;;5.51;100.00;96624.31;5091080;28;20020;-67
2023/12/23 00:51:21;;;;;;;16.80;15.20;;;;;;;5.48;100.00;96630.56;5091313;28;20031;-68
2023/12/23 00:53:47;;;;;;;6.53;5.93;;;;;;;5.56;100.00;96614.44;5093600;28;20027;-67
2023/12/23 00:56:20;;;;;;;6.40;5.47;;;;;;;5.53;100.00;96617.22;5092574;28;20045;-67
2023/12/23 00:58:45;;;;;;;8.10;6.65;;;;;;;5.53;100.00;96618.09;5091470;28;20036;-68
2023/12/23 01:01:10;;;;;;;5.47;4.28;;;;;;;5.54;100.00;96613.69;5094662;28;20024;-67
2023/12/23 01:03:36;;;;;;;6.07;4.32;;;;;;;5.53;100.00;96612.88;5087687;28;20020;-70
2023/12/23 01:06:01;;;;;;;6.43;5.22;;;;;;;5.56;100.00;96624.88;5090877;28;20056;-67
2023/12/23 01:08:28;;;;;;;6.28;4.40;;;;;;;5.49;100.00;96626.19;5091760;28;20549;-68
2023/12/23 01:10:53;;;;;;;3.67;3.33;;;;;;;5.42;100.00;96631.75;5089341;28;20417;-68
2023/12/23 01:13:19;;;;;;;4.60;3.40;;;;;;;5.35;100.00;96634.81;5088157;28;20016;-68
2023/12/23 01:15:45;;;;;;;5.35;2.10;;;;;;;5.28;100.00;96634.31;5095786;28;20060;-67
2023/12/23 01:18:10;;;;;;;3.08;2.30;;;;;;;5.25;100.00;96639.69;5090339;28;20055;-67
2023/12/23 01:20:38;;;;;;;5.22;3.80;;;;;;;5.23;100.00;96642.38;5091182;28;20044;-68
2023/12/23 01:23:04;;;;;;;5.07;4.57;;;;;;;5.22;100.00;96648.53;5087971;28;20087;-67
2023/12/23 01:25:29;;;;;;;8.73;5.15;;;;;;;5.21;100.00;96643.41;5090869;28;20660;-68
2023/12/23 01:27:55;;;;;;;6.10;5.55;;;;;;;5.22;100.00;96645.09;5094116;28;20458;-68
2023/12/23 01:30:20;;;;;;;21.40;19.55;;;;;;;5.26;100.00;96641.38;5095638;28;20401;-68
2023/12/23 01:32:45;;;;;;;17.83;16.20;;;;;;;5.29;100.00;96647.25;5090615;28;20048;-67
2023/12/23 01:35:11;;;;;;;38.53;35.17;;;;;;;5.33;100.00;96653.16;5086442;28;20137;-68
2023/12/23 01:37:37;;;;;;;33.17;29.88;;;;;;;5.27;100.00;96650.91;5094688;28;20081;-67
2023/12/23 01:40:03;;;;;;;53.45;48.58;;;;;;;5.25;100.00;96671.84;5083568;28;20074;-68
2023/12/23 01:42:29;;;;;;;10.25;5.07;;;;;;;5.25;100.00;96671.84;5090659;28;20121;-68
2023/12/23 01:44:54;;;;;;;3.25;2.95;;;;;;;5.23;100.00;96672.88;5091166;28;20024;-67
2023/12/23 01:47:19;;;;;;;3.35;2.90;;;;;;;5.25;100.00;96673.63;5090811;28;20036;-68
2023/12/23 01:49:47;;;;;;;3.83;2.95;;;;;;;5.25;100.00;96671.84;5088989;28;20043;-67
2023/12/23 01:52:12;;;;;;;4.20;2.97;;;;;;;5.25;100.00;96674.47;5085501;28;20027;-68
2023/12/23 01:54:38;;;;;;;5.07;4.65;;;;;;;5.18;100.00;96672.28;5096163;28;20020;-67
2023/12/23 01:57:03;;;;;;;7.47;4.60;;;;;;;5.15;100.00;96666.28;5091543;28;20020;-67
2023/12/23 01:59:29;;;;;;;4.38;3.97;;;;;;;5.16;100.00;96667.97;5092858;28;20046;-67
2023/12/23 02:01:55;;;;;;;5.80;5.20;;;;;;;5.15;100.00;96666.28;5094018;28;20755;-67
2023/12/23 02:04:20;;;;;;;5.60;4.10;;;;;;;5.14;100.00;96666.41;5086501;28;20067;-67
2023/12/23 02:06:46;;;;;;;5.80;4.40;;;;;;;5.13;100.00;96657.72;5089747;28;20020;-67
2023/12/23 02:09:11;;;;;;;5.53;4.32;;;;;;;5.16;100.00;96656.72;5090328;28;20515;-67
2023/12/23 02:12:22;;;;;;;4.50;3.22;;;;;;;5.14;100.00;96659.41;5090107;28;20066;-68
2023/12/23 02:15:09;;;;;;;5.50;4.00;;;;;;;5.19;100.00;96655.69;5089242;28;20020;-67
2023/12/23 02:17:35;;;;;;;7.28;4.65;;;;;;;5.19;100.00;96645.25;5094051;28;20039;-67
2023/12/23 02:20:00;;;;;;;6.63;5.25;;;;;;;5.19;100.00;96655.69;5092316;28;20048;-67
2023/12/23 02:22:25;;;;;;;4.47;4.07;;;;;;;5.14;100.00;96643.72;5085361;28;20024;-68
2023/12/23 02:24:51;;;;;;;4.38;3.08;;;;;;;5.12;100.00;96661.25;5091211;28;20102;-68
2023/12/23 02:27:22;;;;;;;3.38;2.35;;;;;;;5.11;100.00;96659.56;5093189;28;20039;-67
2023/12/23 02:29:48;;;;;;;4.22;2.40;;;;;;;5.15;100.00;96670.69;5090286;28;20032;-67
2023/12/23 02:32:16;;;;;;;3.50;2.58;;;;;;;5.15;100.00;96674.13;5086377;28;20494;-67
2023/12/23 02:34:41;;;;;;;3.30;2.10;;;;;;;5.12;100.00;96669.06;5089601;28;20028;-68
2023/12/23 02:37:07;;;;;;;3.53;2.80;;;;;;;5.13;100.00;96672.56;5088670;28;20027;-68
2023/12/23 02:39:32;;;;;;;2.70;2.17;;;;;;;5.13;100.00;96678.59;5087420;28;20040;-68
2023/12/23 02:41:58;;;;;;;3.63;3.30;;;;;;;5.15;100.00;96676.75;5094377;28;20134;-68
2023/12/23 02:44:23;;;;;;;5.68;3.85;;;;;;;5.16;100.00;96675.81;5089243;28;20027;-68
2023/12/23 02:46:48;;;;;;;5.28;3.15;;;;;;;5.14;100.00;96680.28;5096592;28;20035;-68
2023/12/23 02:49:14;;;;;;;7.68;3.50;;;;;;;5.13;100.00;96683.81;5091057;28;20035;-68
2023/12/23 02:51:39;;;;;;;3.90;3.05;;;;;;;5.11;100.00;96690.88;5086331;28;20406;-68
2023/12/23 02:54:04;;;;;;;5.65;3.03;;;;;;;5.16;100.00;96688.03;5092990;28;20027;-68
2023/12/23 02:56:31;;;;;;;5.57;3.42;;;;;;;5.18;100.00;96686.19;5087436;28;20027;-68
2023/12/23 02:58:56;;;;;;;6.28;3.40;;;;;;;5.18;100.00;96683.56;5088451;28;20454;-68
2023/12/23 03:01:21;;;;;;;4.35;3.70;;;;;;;5.16;100.00;96681.03;5087649;28;20032;-68
2023/12/23 03:03:47;;;;;;;6.22;4.03;;;;;;;5.13;100.00;96685.59;5087885;28;20019;-68
2023/12/23 03:06:14;;;;;;;7.25;3.90;;;;;;;5.08;100.00;96685.84;5091494;28;20557;-68
2023/12/23 03:08:40;;;;;;;6.45;4.53;;;;;;;5.05;100.00;96680.78;5088593;28;20057;-68
2023/12/23 03:11:05;;;;;;;5.55;3.55;;;;;;;5.01;100.00;96690.53;5089845;28;20334;-67
2023/12/23 03:13:30;;;;;;;5.63;2.97;;;;;;;4.98;100.00;96689.88;5083018;28;20473;-68
2023/12/23 03:15:56;;;;;;;5.18;3.28;;;;;;;4.93;100.00;96682.31;5088050;28;20051;-68
2023/12/23 03:18:21;;;;;;;9.02;4.43;;;;;;;4.91;100.00;96689.38;5087802;28;20020;-68
2023/12/23 03:20:47;;;;;;;4.82;3.17;;;;;;;4.90;100.00;96692.06;5091105;28;20032;-68
2023/12/23 03:23:13;;;;;;;4.70;3.30;;;;;;;4.87;100.00;96687.84;5089820;28;20602;-67
2023/12/23 03:25:38;;;;;;;5.65;3.10;;;;;;;4.87;100.00;96690.47;5091128;28;20111;-68
2023/12/23 03:28:04;;;;;;;3.88;3.22;;;;;;;4.81;100.00;96699.47;5090413;28;20028;-67
2023/12/23 03:30:29;;;;;;;6.07;3.08;;;;;;;4.77;100.00;96691.88;5084990;28;20032;-67
2023/12/23 03:32:54;;;;;;;5.97;3.25;;;;;;;4.79;100.00;96700.44;5093078;28;20032;-68
2023/12/23 03:35:20;;;;;;;6.88;3.40;;;;;;;4.82;100.00;96706.34;5092459;28;20519;-68
2023/12/23 03:37:45;;;;;;;4.38;2.85;;;;;;;4.81;100.00;96703.81;5094976;28;20470;-68
2023/12/23 03:40:11;;;;;;;6.90;3.40;;;;;;;4.79;100.00;96703.91;5092972;28;20106;-68
2023/12/23 03:42:38;;;;;;;5.18;3.00;;;;;;;4.80;100.00;96702.13;5094661;28;20027;-68
2023/12/23 03:45:05;;;;;;;3.35;2.72;;;;;;;4.77;100.00;96705.75;5093242;28;20027;-68
2023/12/23 03:47:30;;;;;;;2.60;2.40;;;;;;;4.77;100.00;96704.91;5087242;28;20496;-68
2023/12/23 03:49:56;;;;;;;4.75;2.45;;;;;;;4.77;100.00;96702.31;5095806;28;20034;-68
2023/12/23 03:52:22;;;;;;;4.25;3.03;;;;;;;4.73;100.00;96712.03;5092265;28;20447;-68
2023/12/23 03:54:47;;;;;;;7.20;3.63;;;;;;;4.68;100.00;96711.44;5095575;28;20113;-67
2023/12/23 03:57:12;;;;;;;9.05;4.78;;;;;;;4.60;100.00;96706.63;5094782;28;20512;-68
2023/12/23 03:59:39;;;;;;;11.73;7.32;;;;;;;4.61;100.00;96712.69;5092485;28;20032;-68
2023/12/23 04:02:05;;;;;;;14.50;9.98;;;;;;;4.61;100.00;96712.69;5093123;28;20031;-67
2023/12/23 04:04:31;;;;;;;8.18;6.00;;;;;;;4.62;100.00;96711.78;5093374;28;20053;-68
2023/12/23 04:06:56;;;;;;;7.28;5.30;;;;;;;4.63;100.00;96709.06;5092419;28;20016;-68
2023/12/23 04:09:22;;;;;;;9.43;7.68;;;;;;;4.66;100.00;96705.47;5092884;28;20028;-68
2023/12/23 04:11:47;;;;;;;10.32;8.57;;;;;;;4.64;100.00;96694.28;5092038;28;20397;-68
2023/12/23 04:14:13;;;;;;;10.15;8.00;;;;;;;4.58;100.00;96692.81;5093172;28;20057;-68
2023/12/23 04:16:39;;;;;;;13.63;9.27;;;;;;;4.56;100.00;96690.31;5092382;28;20028;-68
2023/12/23 04:19:04;;;;;;;16.92;11.70;;;;;;;4.57;100.00;96697.22;5086532;28;20060;-68
2023/12/23 04:21:30;;;;;;;11.20;9.25;;;;;;;4.53;100.00;96695.69;5093914;28;20028;-68
2023/12/23 04:23:55;;;;;;;11.95;10.30;;;;;;;4.47;100.00;96685.56;5090313;28;20028;-67
2023/12/23 04:26:20;;;;;;;13.95;10.07;;;;;;;4.43;100.00;96682.28;5096395;28;20024;-67
2023/12/23 04:28:46;;;;;;;9.88;8.82;;;;;;;4.36;100.00;96678.28;5094272;28;20043;-68
2023/12/23 04:31:11;;;;;;;9.50;8.15;;;;;;;4.27;100.00;96673.56;5090670;28;20020;-68
2023/12/23 04:33:37;;;;;;;13.88;8.93;;;;;;;4.23;100.00;96669.44;5096683;28;20024;-67
2023/12/23 04:36:03;;;;;;;9.93;8.82;;;;;;;4.16;100.00;96671.50;5097732;28;20017;-67
2023/12/23 04:38:28;;;;;;;11.95;9.18;;;;;;;4.14;100.00;96673.34;5096955;28;20027;-68
2023/12/23 04:40:54;;;;;;;10.77;8.05;;;;;;;4.11;100.00;96663.09;5096062;28;20034;-67
2023/12/23 04:43:19;;;;;;;17.15;12.70;;;;;;;4.11;100.00;96660.47;5094421;28;20043;-68
2023/12/23 04:45:45;;;;;;;24.13;18.23;;;;;;;4.06;100.00;96642.47;5096589;28;20130;-67
2023/12/23 04:48:10;;;;;;;14.18;10.50;;;;;;;4.03;100.00;96633.94;5091127;28;20101;-68
2023/12/23 04:50:36;;;;;;;11.23;8.40;;;;;;;3.96;100.00;96628.19;5095851;28;20043;-68
2023/12/23 04:53:01;;;;;;;8.75;7.25;;;;;;;3.90;100.00;96623.31;5095475;28;20445;-67
2023/12/23 04:55:27;;;;;;;6.68;4.97;;;;;;;3.82;100.00;96616.72;5091459;28;20044;-68
2023/12/23 04:57:52;;;;;;;5.82;3.88;;;;;;;3.77;100.00;96612.66;5096984;28;20176;-67
2023/12/23 05:00:18;;;;;;;4.10;3.50;;;;;;;3.72;100.00;96624.16;5093231;28;20034;-68
2023/12/23 05:02:43;;;;;;;5.50;4.68;;;;;;;3.69;100.00;96631.28;5097953;28;20035;-67
2023/12/23 05:05:08;;;;;;;6.15;4.57;;;;;;;3.63;100.00;96629.81;5097087;28;20141;-68
2023/12/23 05:07:34;;;;;;;5.57;4.50;;;;;;;3.62;100.00;96635.13;5098562;28;20040;-68
2023/12/23 05:10:00;;;;;;;8.13;5.35;;;;;;;3.54;100.00;96628.53;5094294;28;20499;-67
2023/12/23 05:12:25;;;;;;;9.10;5.70;;;;;;;3.52;100.00;96640.75;5094575;28;20023;-67
2023/12/23 05:14:51;;;;;;;5.55;4.82;;;;;;;3.50;100.00;96639.16;5096779;28;20525;-67
2023/12/23 05:17:17;;;;;;;11.13;9.23;;;;;;;3.42;100.00;96634.31;5094499;28;20079;-68
2023/12/23 05:19:42;;;;;;;7.15;6.18;;;;;;;3.39;100.00;96645.72;5095127;28;20048;-67
2023/12/23 05:22:08;;;;;;;9.07;6.15;;;;;;;3.37;100.00;96646.72;5096048;28;20549;-67
2023/12/23 05:24:36;;;;;;;6.28;5.47;;;;;;;3.33;100.00;96643.44;5089349;28;20119;-67
2023/12/23 05:27:01;;;;;;;7.70;6.65;;;;;;;3.27;100.00;96643.72;5093956;28;20028;-68
2023/12/23 05:29:27;;;;;;;6.13;5.30;;;;;;;3.25;100.00;96645.56;5090148;28;20445;-68
2023/12/23 05:31:52;;;;;;;8.57;5.55;;;;;;;3.17;100.00;96650.28;5094397;28;20024;-68
2023/12/23 05:34:17;;;;;;;6.78;4.20;;;;;;;3.15;100.00;96652.97;5097083;28;20027;-68
2023/12/23 05:36:44;;;;;;;7.57;5.57;;;;;;;3.14;100.00;96652.09;5096405;28;20050;-67
2023/12/23 05:39:10;;;;;;;10.25;5.70;;;;;;;3.13;100.00;96662.59;5093105;28;20016;-68
2023/12/23 05:41:35;;;;;;;5.95;4.25;;;;;;;3.10;100.00;96660.97;5095304;28;20050;-67
2023/12/23 05:44:01;;;;;;;5.88;5.03;;;;;;;3.14;100.00;96667.72;5090001;28;20050;-68
2023/12/23 05:46:26;;;;;;;7.15;4.68;;;;;;;3.11;100.00;96665.25;5093492;28;20058;-67
2023/12/23 05:48:52;;;;;;;6.80;4.65;;;;;;;3.08;100.00;96665.41;5091881;28;20087;-67
2023/12/23 05:51:17;;;;;;;6.20;4.95;;;;;;;3.07;100.00;96673.28;5094897;28;20480;-67
2023/12/23 05:53:42;;;;;;;6.50;5.07;;;;;;;3.02;100.00;96673.50;5090966;28;20024;-68
2023/12/23 05:56:08;;;;;;;8.18;5.47;;;;;;;3.03;100.00;96666.53;5096108;28;20092;-67
2023/12/23 05:58:33;;;;;;;7.53;6.32;;;;;;;3.02;100.00;96670.91;5089905;28;20020;-67
2023/12/23 06:01:00;;;;;;;5.95;5.28;;;;;;;2.99;100.00;96673.66;5091976;28;20034;-67
2023/12/23 06:03:26;;;;;;;5.57;4.20;;;;;;;2.97;100.00;96667.66;5086582;28;20525;-67
2023/12/23 06:05:51;;;;;;;6.07;5.03;;;;;;;2.97;100.00;96659.84;5098016;28;20051;-67
2023/12/23 06:08:17;;;;;;;51.17;31.88;;;;;;;3.05;100.00;96646.50;5094431;28;20032;-67
2023/12/23 06:10:42;;;;;;;19.75;13.43;;;;;;;3.00;100.00;96647.56;5095515;28;20024;-67
2023/12/23 06:13:08;;;;;;;19.50;7.75;;;;;;;2.95;100.00;96646.06;5093866;28;20036;-67
2023/12/23 06:15:33;;;;;;;6.15;4.90;;;;;;;2.90;100.00;96656.72;5092173;28;20027;-67
2023/12/23 06:17:58;;;;;;;5.90;4.57;;;;;;;2.89;100.00;96656.78;5094383;28;20078;-68
2023/12/23 06:20:24;;;;;;;10.50;6.30;;;;;;;2.85;100.00;96661.25;5091415;28;20056;-67
2023/12/23 06:22:50;;;;;;;8.18;5.03;;;;;;;2.81;100.00;96667.53;5090991;28;20051;-67
2023/12/23 06:25:15;;;;;;;9.75;6.75;;;;;;;2.77;100.00;96673.78;5089297;28;20028;-67
2023/12/23 06:27:40;;;;;;;5.93;5.25;;;;;;;2.73;100.00;96673.06;5091151;28;20040;-67
2023/12/23 06:30:07;;;;;;;5.03;3.55;;;;;;;2.67;100.00;96675.94;5075610;28;20050;-68
2023/12/23 06:32:32;;;;;;;3.45;3.15;;;;;;;2.62;100.00;96676.16;5085991;28;20024;-67
2023/12/23 06:34:57;;;;;;;3.30;3.00;;;;;;;2.65;100.00;96676.03;5094126;28;20020;-68
2023/12/23 06:37:23;;;;;;;4.68;4.20;;;;;;;2.71;100.00;96670.56;5087864;28;20667;-67
2023/12/23 06:39:48;;;;;;;8.00;5.93;;;;;;;2.66;100.00;96666.47;5093354;28;20031;-67
2023/12/23 06:42:13;;;;;;;10.65;7.72;;;;;;;2.62;100.00;96665.75;5092094;28;20115;-67
2023/12/23 06:44:39;;;;;;;15.93;12.25;;;;;;;2.57;100.00;96667.72;5097775;28;20035;-67
2023/12/23 06:47:05;;;;;;;12.68;11.38;;;;;;;2.50;100.00;96664.53;5095177;28;20503;-67
2023/12/23 06:49:31;;;;;;;13.25;11.95;;;;;;;2.42;100.00;96677.03;5086797;28;20024;-67
2023/12/23 06:51:57;;;;;;;10.52;9.52;;;;;;;2.37;100.00;96679.84;5085714;28;20020;-66
2023/12/23 06:54:22;;;;;;;10.27;7.35;;;;;;;2.33;100.00;96667.91;5089575;28;20039;-67
2023/12/23 06:56:47;;;;;;;9.80;8.82;;;;;;;2.32;100.00;96679.19;5091583;28;20105;-67
2023/12/23 06:59:13;;;;;;;10.88;9.77;;;;;;;2.28;100.00;96678.47;5091250;28;20469;-66
2023/12/23 07:01:39;;;;;;;11.93;10.80;;;;;;;2.23;100.00;96690.00;5097471;28;20036;-66
2023/12/23 07:04:06;;;;;;;11.43;10.38;;;;;;;2.20;100.00;96693.56;5093415;28;20107;-67
2023/12/23 07:06:32;;;;;;;10.50;9.30;;;;;;;2.09;100.00;96691.44;5094875;28;20111;-67
2023/12/23 07:08:58;;;;;;;11.48;10.38;;;;;;;2.07;100.00;96697.59;5091207;28;20059;-67
2023/12/23 07:11:24;;;;;;;19.88;14.80;;;;;;;2.06;100.00;96701.09;5090102;28;20081;-65
2023/12/23 07:13:51;;;;;;;13.70;12.35;;;;;;;2.05;100.00;96708.06;5091750;28;20020;-65
2023/12/23 07:16:16;;;;;;;12.60;11.05;;;;;;;2.06;100.00;96701.94;5094019;28;20483;-65
2023/12/23 07:18:42;;;;;;;9.68;8.68;;;;;;;2.06;100.00;96698.50;5090444;28;20028;-65
2023/12/23 07:21:07;;;;;;;10.32;9.27;;;;;;;2.02;100.00;96699.53;5096942;28;20038;-65
2023/12/23 07:23:33;;;;;;;9.98;9.00;;;;;;;1.99;100.00;96693.56;5093584;28;20024;-65
2023/12/23 07:25:58;;;;;;;10.32;8.43;;;;;;;2.00;100.00;96699.63;5090743;28;20120;-65
2023/12/23 07:28:23;;;;;;;14.90;13.48;;;;;;;2.00;100.00;96689.22;5090177;28;20396;-65
2023/12/23 07:30:49;;;;;;;19.85;18.05;;;;;;;1.98;100.00;96689.28;5091773;28;20023;-65
2023/12/23 07:33:14;;;;;;;17.73;12.75;;;;;;;1.99;100.00;96692.75;5086896;28;20035;-65
2023/12/23 07:35:40;;;;;;;15.15;12.98;;;;;;;1.98;100.00;96694.47;5090640;28;20095;-65
2023/12/23 07:38:08;;;;;;;15.80;14.20;;;;;;;2.03;100.00;96703.81;5090293;28;20023;-65
2023/12/23 07:40:35;;;;;;;17.40;11.60;;;;;;;2.00;100.00;96710.00;5091000;28;20384;-65
2023/12/23 07:43:00;;;;;;;12.75;11.57;;;;;;;1.94;100.00;96710.25;5091266;28;20020;-65
2023/12/23 07:45:26;;;;;;;13.90;12.30;;;;;;;1.91;100.00;96718.16;5093480;28;20103;-65
2023/12/23 07:47:51;;;;;;;15.73;13.65;;;;;;;1.90;100.00;96714.75;5090715;28;20384;-65
2023/12/23 07:50:16;;;;;;;14.25;12.93;;;;;;;1.86;100.00;96720.94;5094423;28;20594;-65
2023/12/23 07:52:42;;;;;;;14.98;13.68;;;;;;;1.85;100.00;96727.91;5088874;28;20554;-64
2023/12/23 07:55:07;;;;;;;14.38;13.07;;;;;;;1.85;100.00;96724.44;5092441;28;20020;-64
2023/12/23 07:57:33;;;;;;;16.70;13.13;;;;;;;1.82;100.00;96724.56;5091023;28;21451;-65
2023/12/23 07:59:58;;;;;;;14.40;12.90;;;;;;;1.82;100.00;96730.63;5092416;28;20043;-65
2023/12/23 08:02:24;;;;;;;20.60;18.52;;;;;;;1.82;100.00;96728.03;5096021;28;20020;-65
2023/12/23 08:04:49;;;;;;;19.67;17.70;;;;;;;1.83;100.00;96727.13;5092778;28;20016;-65
2023/12/23 08:07:15;;;;;;;23.50;18.42;;;;;;;1.84;100.00;96736.59;5091584;28;20110;-64
2023/12/23 08:09:40;;;;;;;22.08;18.63;;;;;;;1.83;100.00;96745.31;5093228;28;20047;-65
2023/12/23 08:12:08;;;;;;;18.25;16.45;;;;;;;1.83;100.00;96749.63;5093064;28;20027;-65
2023/12/23 08:14:34;;;;;;;19.25;17.23;;;;;;;1.79;100.00;96751.53;5096141;28;20043;-65
2023/12/23 08:16:59;;;;;;;20.55;17.33;;;;;;;1.75;100.00;96767.28;5094198;28;20023;-66
2023/12/23 08:19:25;;;;;;;24.70;17.98;;;;;;;1.76;100.00;96753.41;5094298;28;20051;-67
2023/12/23 08:21:51;;;;;;;18.55;16.45;;;;;;;1.74;100.00;96745.66;5100996;28;20030;-67
2023/12/23 08:24:16;;;;;;;16.80;15.13;;;;;;;1.74;100.00;96748.25;5089954;28;20020;-67
2023/12/23 08:26:41;;;;;;;16.65;15.15;;;;;;;1.75;100.00;96734.38;5098346;28;20104;-66
2023/12/23 08:29:07;;;;;;;18.27;16.58;;;;;;;1.78;100.00;96736.88;5097146;28;20015;-67
2023/12/23 08:31:33;;;;;;;19.65;17.77;;;;;;;1.78;100.00;96738.59;5097972;28;20526;-66
2023/12/23 08:33:59;;;;;;;24.23;18.00;;;;;;;1.80;100.00;96735.03;5089304;28;20021;-66
2023/12/23 08:36:24;;;;;;;19.58;17.65;;;;;;;1.83;100.00;96734.91;5094589;28;20028;-67
2023/12/23 08:38:50;;;;;;;20.35;18.23;;;;;;;1.85;100.00;96738.28;5093287;28;20027;-67
2023/12/23 08:41:15;;;;;;;19.30;17.48;;;;;;;1.86;100.00;96745.19;5093879;28;20036;-66
2023/12/23 08:43:41;;;;;;;18.17;16.48;;;;;;;1.89;100.00;96744.22;5096164;28;20491;-66
2023/12/23 08:46:06;;;;;;;19.00;16.67;;;;;;;1.93;100.00;96740.59;5096452;28;20414;-66
2023/12/23 08:48:31;;;;;;;18.35;16.67;;;;;;;1.95;100.00;96745.69;5095393;28;20396;-66
2023/12/23 08:50:57;;;;;;;17.48;15.80;;;;;;;1.99;100.00;96735.13;5090362;28;20032;-65
2023/12/23 08:53:22;;;;;;;17.58;15.73;;;;;;;2.03;100.00;96727.19;5095267;28;20032;-67
2023/12/23 08:55:48;;;;;;;17.08;15.35;;;;;;;2.05;100.00;96730.56;5095861;28;20019;-66
2023/12/23 08:58:14;;;;;;;16.08;14.57;;;;;;;2.08;100.00;96727.84;5096065;28;20031;-67
2023/12/23 09:00:39;;;;;;;15.70;13.90;;;;;;;2.12;100.00;96722.47;5091911;28;20373;-66
2023/12/23 09:03:05;;;;;;;14.48;12.98;;;;;;;2.17;100.00;96722.28;5094151;28;20491;-66
2023/12/23 09:05:30;;;;;;;16.98;14.23;;;;;;;2.24;100.00;96717.69;5100942;28;20032;-66
2023/12/23 09:07:55;;;;;;;17.58;15.40;;;;;;;2.28;100.00;96717.47;5098144;28;20031;-67
2023/12/23 09:10:21;;;;;;;15.23;13.65;;;;;;;2.37;100.00;96708.44;5093993;28;20046;-66
2023/12/23 09:12:46;;;;;;;15.45;13.85;;;;;;;2.42;100.00;96713.44;5095488;28;20058;-66
2023/12/23 09:15:12;;;;;;;14.60;13.10;;;;;;;2.48;100.00;96705.34;5090160;28;20040;-67
2023/12/23 09:17:37;;;;;;;14.43;12.93;;;;;;;2.52;100.00;96700.88;5093147;28;20027;-67
2023/12/23 09:20:06;;;;;;;13.65;12.23;;;;;;;2.53;100.00;96706.00;5093628;28;20070;-66
2023/12/23 09:22:31;;;;;;;15.30;13.80;;;;;;;2.57;100.00;96706.72;5093608;28;20028;-66
2023/12/23 09:24:57;;;;;;;17.08;14.23;;;;;;;2.60;100.00;96709.19;5090502;28;20024;-66
2023/12/23 09:27:22;;;;;;;15.55;13.95;;;;;;;2.55;100.00;96708.53;5093536;28;20541;-67
2023/12/23 09:29:47;;;;;;;16.35;13.45;;;;;;;2.56;100.00;96713.69;5093482;28;20051;-67
2023/12/23 09:32:13;;;;;;;20.92;15.88;;;;;;;2.59;100.00;96717.88;5092991;28;20038;-66
2023/12/23 09:34:38;;;;;;;22.58;19.10;;;;;;;2.65;100.00;96721.97;5088858;28;20032;-67
2023/12/23 09:37:04;;;;;;;24.38;20.50;;;;;;;2.67;100.00;96720.16;5096430;28;20019;-66
2023/12/23 09:39:29;;;;;;;26.40;21.63;;;;;;;2.77;100.00;96711.06;5092708;28;20555;-66
2023/12/23 09:41:55;;;;;;;24.83;20.50;;;;;;;3.09;100.00;96713.94;5094200;28;20031;-65
2023/12/23 09:44:20;;;;;;;26.85;22.50;;;;;;;3.60;100.00;96705.50;5092894;28;20400;-65
2023/12/23 09:46:46;;;;;;;26.00;21.38;;;;;;;4.10;100.00;96709.16;5092483;28;20016;-65
2023/12/23 09:49:12;;;;;;;23.05;17.77;;;;;;;4.56;100.00;96711.19;5082752;28;20535;-65
2023/12/23 09:51:38;;;;;;;23.35;21.13;;;;;;;4.88;100.00;96715.63;5086474;28;20092;-64
2023/12/23 09:54:05;;;;;;;13.35;12.05;;;;;;;5.23;100.00;96720.72;5092373;28;20148;-65
2023/12/23 09:56:31;;;;;;;15.98;12.23;;;;;;;5.42;100.00;96733.63;5094827;28;20101;-65
2023/12/23 09:58:57;;;;;;;10.95;8.00;;;;;;;5.57;100.00;96750.22;5087510;28;20493;-65
2023/12/23 10:01:23;;;;;;;6.18;5.65;;;;;;;5.62;100.00;96763.00;5091560;28;20457;-66
2023/12/23 10:03:49;;;;;;;7.03;6.32;;;;;;;5.82;100.00;96771.50;5087282;28;20043;-64
2023/12/23 10:06:15;;;;;;;6.70;6.00;;;;;;;5.90;100.00;96782.38;5091247;28;20082;-65
2023/12/23 10:08:41;;;;;;;7.35;5.53;;;;;;;5.88;100.00;96795.53;5091117;28;20032;-66
2023/12/23 10:11:07;;;;;;;4.80;4.40;;;;;;;6.02;100.00;96796.56;5089552;28;20028;-67
2023/12/23 10:13:32;;;;;;;4.93;3.50;;;;;;;6.13;100.00;96798.56;5090850;28;20115;-66
2023/12/23 10:15:58;;;;;;;4.20;3.40;;;;;;;6.32;100.00;96802.75;5088335;28;20115;-65
2023/12/23 10:18:24;;;;;;;3.97;3.60;;;;;;;6.44;100.00;96796.81;5091999;28;20024;-66
2023/12/23 10:20:50;;;;;;;3.17;2.88;;;;;;;6.47;100.00;96772.25;5090015;28;20050;-66
2023/12/23 10:23:16;;;;;;;3.28;3.08;;;;;;;6.64;100.00;96768.63;5087014;28;20036;-65
2023/12/23 10:25:41;;;;;;;4.30;4.00;;;;;;;6.78;100.00;96770.44;5087432;28;20035;-66
2023/12/23 10:28:10;;;;;;;3.63;3.33;;;;;;;6.82;100.00;96764.06;5090138;28;20044;-66
2023/12/23 10:30:40;;;;;;;6.93;5.32;;;;;;;7.07;100.00;96754.72;5092278;28;20153;-66
2023/12/23 10:33:08;;;;;;;15.05;10.88;;;;;;;7.03;100.00;96739.19;5090217;28;20533;-66
2023/12/23 10:35:47;;;;;;;7.30;6.00;;;;;;;7.06;100.00;96729.47;5094273;28;20031;-65
2023/12/23 10:38:20;;;;;;;16.15;12.77;;;;;;;7.19;100.00;96713.88;5093491;28;20115;-66
2023/12/23 10:40:51;;;;;;;5.28;3.03;;;;;;;7.25;100.00;96713.47;5095850;28;20034;-66
2023/12/23 10:43:18;;;;;;;3.95;2.92;;;;;;;7.33;100.00;96710.38;5102286;28;20077;-66
2023/12/23 10:45:48;;;;;;;2.50;2.40;;;;;;;7.37;100.00;96693.53;5089990;28;20031;-66
2023/12/23 10:48:15;;;;;;;3.67;3.35;;;;;;;7.41;100.00;96685.38;5093001;28;20036;-66
2023/12/23 10:50:42;;;;;;;3.60;3.30;;;;;;;7.56;100.00;96682.69;5091039;28;20028;-66
2023/12/23 10:53:12;;;;;;;2.90;2.70;;;;;;;7.62;100.00;96679.66;5086709;28;20032;-66
2023/12/23 10:55:39;;;;;;;2.70;2.50;;;;;;;7.68;100.00;96668.81;5091516;28;20081;-67
2023/12/23 10:58:09;;;;;;;2.95;2.75;;;;;;;7.83;100.00;96658.25;5090170;28;20027;-66
2023/12/23 11:00:36;;;;;;;3.60;2.22;;;;;;;7.96;100.00;96650.44;5091377;28;20045;-66
2023/12/23 11:03:03;;;;;;;2.70;2.50;;;;;;;8.09;100.00;96653.06;5088034;28;20397;-66
2023/12/23 11:05:31;;;;;;;1.90;1.80;;;;;;;8.09;100.00;96640.78;5087941;28;20718;-66
2023/12/23 11:07:59;;;;;;;2.03;1.92;;;;;;;8.06;100.00;96642.75;5091669;28;20099;-68
2023/12/23 11:10:28;;;;;;;2.30;2.10;;;;;;;8.10;100.00;96633.75;5088936;28;20030;-65
2023/12/23 11:12:55;;;;;;;2.05;1.95;;;;;;;8.10;100.00;96631.97;5090014;28;20020;-66
2023/12/23 11:15:20;;;;;;;2.10;2.00;;;;;;;8.23;100.00;96637.22;5093809;28;20055;-64
2023/12/23 11:17:46;;;;;;;2.47;2.28;;;;;;;8.27;100.00;96630.00;5090607;28;20492;-65
2023/12/23 11:20:34;;;;;;;2.13;1.98;;;;;;;8.38;100.00;96629.25;5086648;28;20047;-64